createdAt,value
2023-02-14T00:00:41.093Z,5.70
2023-02-14T00:01:45.564Z,5.70
2023-02-14T00:02:48.295Z,5.70
2023-02-14T00:03:51.823Z,5.70
2023-02-14T00:04:55.000Z,5.70
2023-02-14T00:05:59.046Z,5.70
2023-02-14T00:07:01.581Z,5.70
2023-02-14T00:08:05.103Z,5.60
2023-02-14T00:09:11.212Z,5.70
2023-02-14T00:10:14.549Z,5.60
2023-02-14T00:11:18.439Z,5.60
2023-02-14T00:12:21.936Z,5.60
2023-02-14T00:13:24.447Z,5.60
2023-02-14T00:14:45.166Z,5.60
2023-02-14T00:15:48.603Z,5.60
2023-02-14T00:16:51.605Z,5.60
2023-02-14T00:17:59.661Z,5.50
2023-02-14T00:19:05.283Z,5.60
2023-02-14T00:20:10.360Z,5.60
2023-02-14T00:21:12.809Z,5.50
2023-02-14T00:22:16.467Z,5.50
2023-02-14T00:23:18.934Z,5.50
2023-02-14T00:24:24.792Z,5.50
2023-02-14T00:25:27.347Z,5.40
2023-02-14T00:26:32.423Z,5.40
2023-02-14T00:27:36.543Z,5.40
2023-02-14T00:28:39.404Z,5.40
2023-02-14T00:29:43.149Z,5.40
2023-02-14T00:30:47.222Z,5.40
2023-02-14T00:31:50.966Z,5.40
2023-02-14T00:32:53.660Z,5.30
2023-02-14T00:33:57.112Z,5.30
2023-02-14T00:35:01.943Z,5.30
2023-02-14T00:36:05.507Z,5.30
2023-02-14T00:37:08.949Z,5.30
2023-02-14T00:38:14.248Z,5.30
2023-02-14T00:39:18.555Z,5.20
2023-02-14T00:40:22.276Z,5.30
2023-02-14T00:41:25.149Z,5.20
2023-02-14T00:42:31.705Z,5.20
2023-02-14T00:43:34.278Z,5.20
2023-02-14T00:44:38.289Z,5.20
2023-02-14T00:45:40.947Z,5.20
2023-02-14T00:46:44.979Z,5.20
2023-02-14T00:47:48.471Z,5.20
2023-02-14T00:48:51.533Z,5.20
2023-02-14T00:49:55.019Z,5.20
2023-02-14T00:50:57.989Z,5.10
2023-02-14T00:52:01.736Z,5.10
2023-02-14T00:53:11.557Z,5.10
2023-02-14T00:54:15.162Z,5.10
2023-02-14T00:55:21.031Z,5.10
2023-02-14T00:56:23.956Z,5.10
2023-02-14T00:57:27.644Z,5.10
2023-02-14T00:58:31.993Z,5.10
2023-02-14T00:59:35.421Z,5.00
2023-02-14T01:00:39.893Z,5.00
2023-02-14T01:01:43.425Z,5.00
2023-02-14T01:02:46.072Z,5.00
2023-02-14T01:03:50.850Z,5.00
2023-02-14T01:04:55.539Z,5.00
2023-02-14T01:05:58.077Z,5.00
2023-02-14T01:07:01.704Z,4.90
2023-02-14T01:08:04.515Z,4.90
2023-02-14T01:09:08.012Z,4.90
2023-02-14T01:10:11.697Z,4.90
2023-02-14T01:11:24.047Z,4.90
2023-02-14T01:12:28.457Z,4.90
2023-02-14T01:13:35.760Z,4.90
2023-02-14T01:14:42.579Z,4.80
2023-02-14T01:15:47.845Z,4.90
2023-02-14T01:16:53.449Z,4.80
2023-02-14T01:17:56.256Z,4.80
2023-02-14T01:19:01.791Z,4.80
2023-02-14T01:20:06.180Z,4.80
2023-02-14T01:21:16.998Z,4.80
2023-02-14T01:22:20.518Z,4.80
2023-02-14T01:23:22.976Z,4.80
2023-02-14T01:24:26.809Z,4.80
2023-02-14T01:25:30.057Z,4.80
2023-02-14T01:26:36.602Z,4.70
2023-02-14T01:27:39.211Z,4.70
2023-02-14T01:28:45.032Z,4.70
2023-02-14T01:29:47.886Z,4.70
2023-02-14T01:30:51.926Z,4.70
2023-02-14T01:31:54.463Z,4.70
2023-02-14T01:32:57.998Z,4.70
2023-02-14T01:34:01.370Z,4.60
2023-02-14T01:35:05.864Z,4.60
2023-02-14T01:36:15.101Z,4.60
2023-02-14T01:37:18.576Z,4.60
2023-02-14T01:38:20.952Z,4.50
2023-02-14T01:39:24.476Z,4.50
2023-02-14T01:40:26.942Z,4.50
2023-02-14T01:41:33.763Z,4.50
2023-02-14T01:42:37.765Z,4.50
2023-02-14T01:44:04.292Z,4.40
2023-02-14T01:45:16.727Z,4.40
2023-02-14T01:46:20.380Z,4.40
2023-02-14T01:47:23.825Z,4.40
2023-02-14T01:48:27.700Z,4.40
2023-02-14T01:49:34.944Z,4.40
2023-02-14T01:50:42.633Z,4.40
2023-02-14T01:51:54.831Z,4.40
2023-02-14T01:53:02.530Z,4.40
2023-02-14T01:54:09.886Z,4.30
2023-02-14T01:55:18.916Z,4.30
2023-02-14T01:56:29.251Z,4.30
2023-02-14T01:57:36.739Z,4.30
2023-02-14T01:58:46.065Z,4.30
2023-02-14T01:59:54.064Z,4.30
2023-02-14T02:00:59.700Z,4.30
2023-02-14T02:02:04.006Z,4.30
2023-02-14T02:03:08.517Z,4.30
2023-02-14T02:04:17.271Z,4.30
2023-02-14T02:05:23.910Z,4.20
2023-02-14T02:06:32.129Z,4.20
2023-02-14T02:07:36.354Z,4.20
2023-02-14T02:08:45.846Z,4.20
2023-02-14T02:09:53.365Z,4.20
2023-02-14T02:10:57.069Z,4.20
2023-02-14T02:12:03.012Z,4.20
2023-02-14T02:13:08.511Z,4.20
2023-02-14T02:14:17.248Z,4.20
2023-02-14T02:15:26.730Z,4.10
2023-02-14T02:17:09.506Z,4.10
2023-02-14T02:18:21.038Z,4.10
2023-02-14T02:20:30.142Z,4.10
2023-02-14T02:22:35.415Z,4.10
2023-02-14T02:24:30.016Z,4.00
2023-02-14T02:25:58.644Z,4.00
2023-02-14T02:27:40.349Z,4.00
2023-02-14T02:29:17.803Z,4.00
2023-02-14T02:30:59.917Z,3.90
2023-02-14T02:32:44.083Z,3.90
2023-02-14T02:34:40.168Z,3.90
2023-02-14T02:36:14.846Z,3.90
2023-02-14T02:37:38.406Z,3.90
2023-02-14T02:39:04.806Z,3.80
2023-02-14T02:40:30.177Z,3.80
2023-02-14T02:41:48.716Z,3.80
2023-02-14T02:43:06.367Z,3.80
2023-02-14T02:44:17.422Z,3.80
2023-02-14T02:45:33.323Z,3.70
2023-02-14T02:46:50.405Z,3.70
2023-02-14T02:48:01.860Z,3.70
2023-02-14T02:49:35.209Z,3.70
2023-02-14T02:51:00.211Z,3.70
2023-02-14T02:52:27.294Z,3.70
2023-02-14T02:53:41.030Z,3.70
2023-02-14T02:54:53.902Z,3.70
2023-02-14T02:56:26.094Z,3.70
2023-02-14T02:57:37.079Z,3.60
2023-02-14T02:58:43.663Z,3.60
2023-02-14T02:59:48.710Z,3.60
2023-02-14T03:00:53.820Z,3.60
2023-02-14T03:02:06.592Z,3.60
2023-02-14T03:03:28.612Z,3.60
2023-02-14T03:04:54.012Z,3.60
2023-02-14T03:05:59.334Z,3.50
2023-02-14T03:07:25.885Z,3.50
2023-02-14T03:08:28.652Z,3.50
2023-02-14T03:09:58.325Z,3.50
2023-02-14T03:11:02.069Z,3.50
2023-02-14T03:12:30.812Z,3.50
2023-02-14T03:14:12.094Z,3.50
2023-02-14T03:15:30.529Z,3.50
2023-02-14T03:16:51.617Z,3.50
2023-02-14T03:18:05.048Z,3.50
2023-02-14T03:19:37.895Z,3.50
2023-02-14T03:20:54.115Z,3.50
2023-02-14T03:22:03.357Z,3.50
2023-02-14T03:23:18.316Z,3.50
2023-02-14T03:24:30.825Z,3.50
2023-02-14T03:25:47.368Z,3.50
2023-02-14T03:26:59.985Z,3.50
2023-02-14T03:28:16.882Z,3.50
2023-02-14T03:29:32.199Z,3.50
2023-02-14T03:30:46.734Z,3.40
2023-02-14T03:32:04.942Z,3.40
2023-02-14T03:33:18.602Z,3.40
2023-02-14T03:34:29.876Z,3.40
2023-02-14T03:35:44.400Z,3.40
2023-02-14T03:36:54.774Z,3.40
2023-02-14T03:38:06.951Z,3.40
2023-02-14T03:39:19.639Z,3.40
2023-02-14T03:40:29.559Z,3.40
2023-02-14T03:41:38.910Z,3.40
2023-02-14T03:42:48.462Z,3.40
2023-02-14T03:43:55.763Z,3.40
2023-02-14T03:45:04.916Z,3.40
2023-02-14T03:46:14.030Z,3.40
2023-02-14T03:47:20.456Z,3.40
2023-02-14T03:48:24.928Z,3.40
2023-02-14T03:49:36.801Z,3.40
2023-02-14T03:50:42.816Z,3.40
2023-02-14T03:51:50.215Z,3.40
2023-02-14T03:52:57.189Z,3.40
2023-02-14T03:54:01.399Z,3.30
2023-02-14T03:55:10.349Z,3.30
2023-02-14T03:56:19.349Z,3.30
2023-02-14T03:57:26.956Z,3.30
2023-02-14T03:58:34.771Z,3.30
2023-02-14T03:59:38.495Z,3.30
2023-02-14T04:00:43.621Z,3.30
2023-02-14T04:01:51.567Z,3.30
2023-02-14T04:02:59.098Z,3.30
2023-02-14T04:04:06.864Z,3.30
2023-02-14T04:05:16.775Z,3.30
2023-02-14T04:06:21.064Z,3.30
2023-02-14T04:07:25.557Z,3.40
2023-02-14T04:08:30.772Z,3.30
2023-02-14T04:09:33.130Z,3.40
2023-02-14T04:10:40.138Z,3.30
2023-02-14T04:11:43.079Z,3.40
2023-02-14T04:12:46.993Z,3.40
2023-02-14T04:13:49.554Z,3.30
2023-02-14T04:14:53.119Z,3.30
2023-02-14T04:15:55.773Z,3.30
2023-02-14T04:17:16.968Z,3.30
2023-02-14T04:18:40.838Z,3.30
2023-02-14T04:19:46.420Z,3.30
2023-02-14T04:20:48.890Z,3.30
2023-02-14T04:21:53.109Z,3.30
2023-02-14T04:22:55.829Z,3.30
2023-02-14T04:23:59.348Z,3.30
2023-02-14T04:25:01.811Z,3.30
2023-02-14T04:26:10.071Z,3.30
2023-02-14T04:27:13.015Z,3.30
2023-02-14T04:28:16.892Z,3.30
2023-02-14T04:29:19.967Z,3.30
2023-02-14T04:30:26.170Z,3.30
2023-02-14T04:31:28.772Z,3.40
2023-02-14T04:32:32.228Z,3.40
2023-02-14T04:33:37.665Z,3.40
2023-02-14T04:34:46.750Z,3.40
2023-02-14T04:35:49.331Z,3.40
2023-02-14T04:36:52.976Z,3.40
2023-02-14T04:37:56.726Z,3.50
2023-02-14T04:39:01.667Z,3.50
2023-02-14T04:40:06.442Z,3.50
2023-02-14T04:41:11.522Z,3.50
2023-02-14T04:42:14.400Z,3.50
2023-02-14T04:43:18.039Z,3.50
2023-02-14T04:44:20.727Z,3.60
2023-02-14T04:45:24.604Z,3.60
2023-02-14T04:46:29.048Z,3.60
2023-02-14T04:47:32.654Z,3.60
2023-02-14T04:48:35.045Z,3.60
2023-02-14T04:49:39.203Z,3.70
2023-02-14T04:50:41.892Z,3.70
2023-02-14T04:51:45.300Z,3.70
2023-02-14T04:52:47.913Z,3.70
2023-02-14T04:53:51.351Z,3.70
2023-02-14T04:54:54.129Z,3.70
2023-02-14T04:55:57.646Z,3.70
2023-02-14T04:57:01.598Z,3.70
2023-02-14T04:58:05.077Z,3.80
2023-02-14T04:59:07.672Z,3.80
2023-02-14T05:00:13.267Z,3.80
2023-02-14T05:01:16.057Z,3.80
2023-02-14T05:02:19.523Z,3.80
2023-02-14T05:03:22.033Z,3.80
2023-02-14T05:04:25.977Z,3.80
2023-02-14T05:05:29.682Z,3.80
2023-02-14T05:06:33.740Z,3.80
2023-02-14T05:07:36.186Z,3.90
2023-02-14T05:08:41.969Z,3.90
2023-02-14T05:09:44.569Z,3.90
2023-02-14T05:10:48.093Z,3.90
2023-02-14T05:11:50.651Z,3.90
2023-02-14T05:12:55.833Z,3.90
2023-02-14T05:13:58.259Z,3.90
2023-02-14T05:15:01.800Z,3.90
2023-02-14T05:16:07.307Z,3.90
2023-02-14T05:17:10.095Z,3.90
2023-02-14T05:18:13.699Z,3.90
2023-02-14T05:19:17.302Z,3.90
2023-02-14T05:20:20.110Z,3.90
2023-02-14T05:21:24.130Z,3.90
2023-02-14T05:22:26.787Z,3.90
2023-02-14T05:23:32.147Z,3.90
2023-02-14T05:24:35.586Z,3.90
2023-02-14T05:25:38.036Z,3.90
2023-02-14T05:26:42.068Z,3.90
2023-02-14T05:27:44.612Z,3.90
2023-02-14T05:28:49.642Z,3.80
2023-02-14T05:29:52.085Z,3.80
2023-02-14T05:30:57.029Z,3.80
2023-02-14T05:32:01.807Z,3.80
2023-02-14T05:33:05.774Z,3.80
2023-02-14T05:34:08.480Z,3.80
2023-02-14T05:35:12.218Z,3.80
2023-02-14T05:36:14.780Z,3.80
2023-02-14T05:37:18.424Z,3.80
2023-02-14T05:38:21.065Z,3.80
2023-02-14T05:39:24.472Z,3.80
2023-02-14T05:40:27.383Z,3.80
2023-02-14T05:41:30.932Z,3.80
2023-02-14T05:42:33.368Z,3.80
2023-02-14T05:43:36.949Z,3.80
2023-02-14T05:44:40.859Z,3.80
2023-02-14T05:45:44.900Z,3.80
2023-02-14T05:46:47.379Z,3.80
2023-02-14T05:47:54.075Z,3.70
2023-02-14T05:48:56.548Z,3.70
2023-02-14T05:50:01.489Z,3.70
2023-02-14T05:51:05.975Z,3.70
2023-02-14T05:52:09.699Z,3.70
2023-02-14T05:53:12.853Z,3.70
2023-02-14T05:54:16.364Z,3.70
2023-02-14T05:55:18.852Z,3.70
2023-02-14T05:56:22.328Z,3.70
2023-02-14T05:57:25.958Z,3.70
2023-02-14T05:58:29.633Z,3.70
2023-02-14T05:59:32.207Z,3.70
2023-02-14T06:00:41.425Z,3.70
2023-02-14T06:01:44.291Z,3.70
2023-02-14T06:02:47.786Z,3.70
2023-02-14T06:03:50.299Z,3.70
2023-02-14T06:04:54.039Z,3.70
2023-02-14T06:05:56.802Z,3.70
2023-02-14T06:07:01.483Z,3.70
2023-02-14T06:08:04.046Z,3.70
2023-02-14T06:09:07.751Z,3.70
2023-02-14T06:10:11.348Z,3.70
2023-02-14T06:11:14.831Z,3.60
2023-02-14T06:12:17.592Z,3.70
2023-02-14T06:13:21.111Z,3.60
2023-02-14T06:14:23.665Z,3.60
2023-02-14T06:15:27.258Z,3.60
2023-02-14T06:16:31.346Z,3.60
2023-02-14T06:17:38.056Z,3.60
2023-02-14T06:18:40.703Z,3.60
2023-02-14T06:19:46.035Z,3.60
2023-02-14T06:20:49.674Z,3.60
2023-02-14T06:21:53.076Z,3.60
2023-02-14T06:22:57.356Z,3.60
2023-02-14T06:24:00.809Z,3.60
2023-02-14T06:26:27.844Z,3.50
2023-02-14T06:27:32.169Z,3.50
2023-02-14T06:28:38.426Z,3.50
2023-02-14T06:29:40.848Z,3.50
2023-02-14T06:30:44.582Z,3.50
2023-02-14T06:31:52.733Z,3.50
2023-02-14T06:32:55.317Z,3.50
2023-02-14T06:33:58.965Z,3.40
2023-02-14T06:35:02.116Z,3.40
2023-02-14T06:36:08.253Z,3.40
2023-02-14T06:37:11.005Z,3.40
2023-02-14T06:38:18.129Z,3.40
2023-02-14T06:39:24.136Z,3.40
2023-02-14T06:40:27.614Z,3.40
2023-02-14T06:41:31.915Z,3.40
2023-02-14T06:42:35.385Z,3.30
2023-02-14T06:43:38.803Z,3.30
2023-02-14T06:44:42.432Z,3.30
2023-02-14T06:45:46.538Z,3.30
2023-02-14T06:46:51.613Z,3.30
2023-02-14T06:47:55.327Z,3.30
2023-02-14T06:48:57.999Z,3.30
2023-02-14T06:50:01.749Z,3.20
2023-02-14T06:51:04.883Z,3.20
2023-02-14T06:52:08.695Z,3.20
2023-02-14T06:53:12.583Z,3.20
2023-02-14T06:54:15.054Z,3.20
2023-02-14T06:55:19.249Z,3.20
2023-02-14T06:56:21.800Z,3.20
2023-02-14T06:57:25.401Z,3.20
2023-02-14T06:58:29.179Z,3.20
2023-02-14T06:59:31.823Z,3.20
2023-02-14T07:00:35.272Z,3.20
2023-02-14T07:01:38.190Z,3.20
2023-02-14T07:02:45.163Z,3.20
2023-02-14T07:03:47.923Z,3.20
2023-02-14T07:04:53.792Z,3.20
2023-02-14T07:05:57.805Z,3.30
2023-02-14T07:07:01.659Z,3.30
2023-02-14T07:08:04.606Z,3.30
2023-02-14T07:09:08.585Z,3.30
2023-02-14T07:10:14.362Z,3.30
2023-02-14T07:11:18.001Z,3.30
2023-02-14T07:12:20.567Z,3.30
2023-02-14T07:13:24.304Z,3.30
2023-02-14T07:14:28.184Z,3.30
2023-02-14T07:15:31.979Z,3.40
2023-02-14T07:16:34.515Z,3.40
2023-02-14T07:17:38.047Z,3.40
2023-02-14T07:18:42.975Z,3.40
2023-02-14T07:19:45.549Z,3.40
2023-02-14T07:20:50.742Z,3.50
2023-02-14T07:21:53.218Z,3.50
2023-02-14T07:22:56.914Z,3.50
2023-02-14T07:24:00.599Z,3.50
2023-02-14T07:25:04.418Z,3.50
2023-02-14T07:26:07.933Z,3.60
2023-02-14T07:27:10.449Z,3.60
2023-02-14T07:28:13.932Z,3.60
2023-02-14T07:29:17.507Z,3.60
2023-02-14T07:30:20.488Z,3.70
2023-02-14T07:31:24.525Z,3.70
2023-02-14T07:32:27.435Z,3.70
2023-02-14T07:33:34.430Z,3.70
2023-02-14T07:34:38.343Z,3.80
2023-02-14T07:35:41.846Z,3.80
2023-02-14T07:36:45.347Z,3.80
2023-02-14T07:37:50.854Z,3.90
2023-02-14T07:38:54.426Z,3.90
2023-02-14T07:39:58.020Z,3.90
2023-02-14T07:41:01.718Z,4.00
2023-02-14T07:42:05.748Z,4.10
2023-02-14T07:43:09.260Z,4.20
2023-02-14T07:44:12.795Z,4.40
2023-02-14T07:45:21.590Z,4.60
2023-02-14T07:46:25.715Z,4.90
2023-02-14T07:47:29.347Z,5.20
2023-02-14T07:48:34.506Z,5.60
2023-02-14T07:49:39.701Z,5.90
2023-02-14T07:50:42.176Z,6.30
2023-02-14T07:51:45.744Z,6.70
2023-02-14T07:52:49.492Z,7.00
2023-02-14T07:53:51.873Z,7.30
2023-02-14T07:54:55.520Z,7.60
2023-02-14T07:55:59.073Z,7.90
2023-02-14T07:57:02.560Z,8.20
2023-02-14T07:58:05.335Z,8.50
2023-02-14T07:59:09.008Z,8.80
2023-02-14T08:00:14.281Z,9.10
2023-02-14T08:01:17.836Z,9.40
2023-02-14T08:02:21.426Z,9.70
2023-02-14T08:03:27.520Z,10.00
2023-02-14T08:04:33.579Z,10.40
2023-02-14T08:05:38.808Z,10.70
2023-02-14T08:06:42.848Z,11.00
2023-02-14T08:07:46.387Z,11.40
2023-02-14T08:08:50.316Z,11.60
2023-02-14T08:09:53.865Z,12.00
2023-02-14T08:10:56.919Z,12.30
2023-02-14T08:12:18.214Z,12.50
2023-02-14T08:13:22.414Z,12.80
2023-02-14T08:14:25.012Z,13.20
2023-02-14T08:15:47.895Z,13.40
2023-02-14T08:16:51.358Z,13.70
2023-02-14T08:17:54.155Z,14.10
2023-02-14T08:18:57.978Z,14.30
2023-02-14T08:20:00.510Z,14.60
2023-02-14T08:21:06.426Z,14.80
2023-02-14T08:22:09.873Z,15.10
2023-02-14T08:23:13.853Z,15.30
2023-02-14T08:24:16.436Z,15.60
2023-02-14T08:25:22.698Z,15.90
2023-02-14T08:26:26.396Z,16.10
2023-02-14T08:27:29.908Z,16.40
2023-02-14T08:28:33.771Z,16.70
2023-02-14T08:29:40.131Z,16.90
2023-02-14T08:30:44.271Z,17.20
2023-02-14T08:31:49.267Z,17.40
2023-02-14T08:32:51.733Z,17.70
2023-02-14T08:33:58.181Z,17.90
2023-02-14T08:35:01.657Z,18.10
2023-02-14T08:36:10.039Z,18.30
2023-02-14T08:37:12.846Z,18.50
2023-02-14T08:38:16.455Z,18.70
2023-02-14T08:39:19.829Z,18.90
2023-02-14T08:40:22.954Z,19.10
2023-02-14T08:41:26.443Z,19.40
2023-02-14T08:42:30.008Z,19.60
2023-02-14T08:43:34.492Z,19.80
2023-02-14T08:44:38.188Z,20.00
2023-02-14T08:45:42.218Z,20.20
2023-02-14T08:46:44.808Z,20.30
2023-02-14T08:47:48.802Z,20.60
2023-02-14T08:48:53.570Z,20.80
2023-02-14T08:49:56.087Z,21.00
2023-02-14T08:50:59.916Z,21.20
2023-02-14T08:52:04.927Z,21.40
2023-02-14T08:53:10.096Z,21.70
2023-02-14T08:54:13.939Z,21.90
2023-02-14T08:55:16.816Z,22.10
2023-02-14T08:56:22.661Z,22.30
2023-02-14T08:57:27.712Z,22.50
2023-02-14T08:58:32.778Z,22.70
2023-02-14T08:59:36.245Z,22.90
2023-02-14T09:02:49.997Z,23.40
2023-02-14T09:03:53.641Z,23.60
2023-02-14T09:04:58.426Z,23.80
2023-02-14T09:06:05.430Z,24.00
2023-02-14T09:07:10.780Z,24.10
2023-02-14T09:08:14.255Z,24.30
2023-02-14T09:09:19.411Z,24.40
2023-02-14T09:10:22.999Z,24.50
2023-02-14T09:11:27.296Z,24.70
2023-02-14T09:12:30.806Z,24.80
2023-02-14T09:13:36.291Z,24.90
2023-02-14T09:14:41.902Z,25.00
2023-02-14T09:15:45.639Z,25.10
2023-02-14T09:16:48.250Z,25.20
2023-02-14T09:17:52.282Z,25.40
2023-02-14T09:18:55.208Z,25.50
2023-02-14T09:19:59.115Z,25.60
2023-02-14T09:21:07.636Z,25.80
2023-02-14T09:22:13.070Z,25.90
2023-02-14T09:23:16.648Z,26.10
2023-02-14T09:24:24.957Z,26.30
2023-02-14T09:25:28.845Z,26.50
2023-02-14T09:26:36.948Z,26.70
2023-02-14T09:27:41.457Z,26.80
2023-02-14T09:28:45.563Z,26.90
2023-02-14T09:29:49.281Z,27.00
2023-02-14T09:30:54.344Z,27.20
2023-02-14T09:32:00.141Z,27.30
2023-02-14T09:33:05.385Z,27.40
2023-02-14T09:34:26.484Z,27.50
2023-02-14T09:35:48.306Z,27.60
2023-02-14T09:37:12.537Z,27.70
2023-02-14T09:38:19.950Z,27.90
2023-02-14T09:39:23.835Z,28.00
2023-02-14T09:40:27.452Z,28.10
2023-02-14T09:42:16.153Z,28.20
2023-02-14T09:43:33.516Z,28.30
2023-02-14T09:44:42.395Z,28.40
2023-02-14T09:45:52.991Z,28.50
2023-02-14T09:47:03.121Z,28.60
2023-02-14T09:48:14.245Z,28.70
2023-02-14T09:49:22.778Z,28.90
2023-02-14T09:50:34.781Z,29.00
2023-02-14T09:51:51.752Z,29.10
2023-02-14T09:53:01.718Z,29.30
2023-02-14T09:54:15.616Z,29.40
2023-02-14T09:55:20.038Z,29.50
2023-02-14T09:56:33.594Z,29.60
2023-02-14T09:57:56.808Z,29.70
2023-02-14T09:59:11.355Z,29.90
2023-02-14T10:00:31.333Z,29.90
2023-02-14T10:01:42.074Z,30.00
2023-02-14T10:02:59.509Z,30.00
2023-02-14T10:04:25.286Z,30.10
2023-02-14T10:05:32.594Z,30.20
2023-02-14T10:06:47.646Z,30.20
2023-02-14T10:08:01.418Z,30.20
2023-02-14T10:09:16.543Z,30.30
2023-02-14T10:10:28.683Z,30.50
2023-02-14T10:11:33.068Z,30.60
2023-02-14T10:12:44.421Z,30.80
2023-02-14T10:13:54.467Z,30.90
2023-02-14T10:15:02.272Z,31.00
2023-02-14T10:16:16.026Z,31.10
2023-02-14T10:17:26.635Z,31.20
2023-02-14T10:18:39.859Z,31.30
2023-02-14T10:19:48.500Z,31.30
2023-02-14T10:20:57.705Z,31.40
2023-02-14T10:22:21.389Z,31.50
2023-02-14T10:23:38.717Z,31.70
2023-02-14T10:24:55.669Z,31.90
2023-02-14T10:26:04.385Z,32.00
2023-02-14T10:27:14.003Z,32.00
2023-02-14T10:28:26.853Z,31.90
2023-02-14T10:29:30.705Z,31.90
2023-02-14T10:30:43.738Z,31.90
2023-02-14T10:31:56.023Z,31.80
2023-02-14T10:33:07.286Z,31.90
2023-02-14T10:34:18.786Z,31.90
2023-02-14T10:35:44.266Z,32.00
2023-02-14T10:37:04.500Z,32.00
2023-02-14T10:38:29.002Z,32.00
2023-02-14T10:39:54.653Z,32.00
2023-02-14T10:41:21.671Z,32.00
2023-02-14T10:42:37.765Z,32.00
2023-02-14T10:43:51.855Z,32.10
2023-02-14T10:45:08.295Z,32.10
2023-02-14T10:46:27.506Z,32.20
2023-02-14T10:47:47.778Z,32.20
2023-02-14T10:49:01.304Z,32.20
2023-02-14T10:50:17.805Z,32.20
2023-02-14T10:51:33.438Z,32.20
2023-02-14T10:52:47.162Z,32.20
2023-02-14T10:54:04.176Z,32.10
2023-02-14T10:55:32.112Z,32.10
2023-02-14T10:56:41.715Z,31.90
2023-02-14T10:57:49.994Z,31.70
2023-02-14T10:58:57.385Z,31.60
2023-02-14T11:00:05.452Z,31.40
2023-02-14T11:01:12.933Z,31.20
2023-02-14T11:02:19.701Z,31.00
2023-02-14T11:03:25.181Z,30.90
2023-02-14T11:04:32.316Z,30.80
2023-02-14T11:05:40.605Z,30.70
2023-02-14T11:06:46.045Z,30.70
2023-02-14T11:07:49.860Z,30.60
2023-02-14T11:08:55.551Z,30.60
2023-02-14T11:10:00.298Z,30.60
2023-02-14T11:11:17.128Z,30.70
2023-02-14T11:12:37.556Z,30.70
2023-02-14T11:13:42.304Z,30.70
2023-02-14T11:14:48.368Z,30.80
2023-02-14T11:15:54.188Z,30.80
2023-02-14T11:16:59.277Z,30.80
2023-02-14T11:18:24.214Z,30.70
2023-02-14T11:19:30.179Z,30.70
2023-02-14T11:20:32.934Z,30.70
2023-02-14T11:21:40.302Z,30.60
2023-02-14T11:22:43.975Z,30.60
2023-02-14T11:23:49.524Z,30.50
2023-02-14T11:25:06.646Z,30.40
2023-02-14T11:26:24.868Z,30.20
2023-02-14T11:27:28.466Z,30.20
2023-02-14T11:28:32.726Z,30.10
2023-02-14T11:29:44.859Z,30.10
2023-02-14T11:30:49.920Z,30.10
2023-02-14T11:31:53.944Z,30.10
2023-02-14T11:32:57.014Z,30.10
2023-02-14T11:34:04.424Z,30.10
2023-02-14T11:35:19.651Z,30.20
2023-02-14T11:36:24.045Z,30.20
2023-02-14T11:37:29.700Z,30.20
2023-02-14T11:38:38.213Z,30.30
2023-02-14T11:39:42.006Z,30.30
2023-02-14T11:40:45.904Z,30.40
2023-02-14T11:41:53.958Z,30.40
2023-02-14T11:43:14.041Z,30.50
2023-02-14T11:44:23.505Z,30.50
2023-02-14T11:45:34.413Z,30.50
2023-02-14T11:46:52.316Z,30.60
2023-02-14T11:48:31.543Z,30.60
2023-02-14T11:49:41.029Z,30.60
2023-02-14T11:50:53.496Z,30.60
2023-02-14T11:51:59.971Z,30.60
2023-02-14T11:53:03.778Z,30.50
2023-02-14T11:54:13.199Z,30.30
2023-02-14T11:55:28.236Z,30.20
2023-02-14T11:56:49.656Z,30.20
2023-02-14T11:57:55.197Z,30.10
2023-02-14T11:59:03.848Z,30.10
2023-02-14T12:00:18.369Z,30.10
2023-02-14T12:01:31.962Z,30.00
2023-02-14T12:02:47.265Z,30.00
2023-02-14T12:03:52.177Z,29.90
2023-02-14T12:05:00.728Z,29.90
2023-02-14T12:06:03.428Z,29.90
2023-02-14T12:07:22.115Z,29.80
2023-02-14T12:09:32.777Z,29.70
2023-02-14T12:10:38.098Z,29.70
2023-02-14T12:11:40.574Z,29.70
2023-02-14T12:13:58.477Z,29.60
2023-02-14T12:15:38.214Z,29.60
2023-02-14T12:16:49.261Z,29.50
2023-02-14T12:18:01.913Z,29.40
2023-02-14T12:19:12.723Z,29.40
2023-02-14T12:20:23.901Z,29.40
2023-02-14T12:21:45.447Z,29.40
2023-02-14T12:23:01.476Z,29.40
2023-02-14T12:24:14.550Z,29.50
2023-02-14T12:25:22.811Z,29.50
2023-02-14T12:26:32.201Z,29.50
2023-02-14T12:27:49.681Z,29.40
2023-02-14T12:29:03.923Z,29.40
2023-02-14T12:30:15.417Z,29.30
2023-02-14T12:31:20.322Z,29.30
2023-02-14T12:32:26.968Z,29.20
2023-02-14T12:33:33.509Z,29.20
2023-02-14T12:34:37.810Z,29.10
2023-02-14T12:35:53.614Z,29.10
2023-02-14T12:37:20.857Z,29.00
2023-02-14T12:38:40.517Z,28.90
2023-02-14T12:40:11.770Z,28.80
2023-02-14T12:42:49.821Z,28.60
2023-02-14T12:43:56.892Z,28.50
2023-02-14T12:45:13.513Z,28.50
2023-02-14T12:47:00.229Z,28.50
2023-02-14T12:48:18.962Z,28.50
2023-02-14T12:49:47.707Z,28.40
2023-02-14T12:51:01.178Z,28.30
2023-02-14T12:52:29.642Z,28.30
2023-02-14T12:53:49.321Z,28.20
2023-02-14T12:55:14.002Z,28.20
2023-02-14T12:56:28.462Z,28.10
2023-02-14T12:57:45.144Z,28.00
2023-02-14T12:59:01.647Z,27.90
2023-02-14T13:00:24.235Z,27.80
2023-02-14T13:02:10.993Z,27.70
2023-02-14T13:03:45.495Z,27.70
2023-02-14T13:05:01.771Z,27.70
2023-02-14T13:06:16.365Z,27.70
2023-02-14T13:07:42.507Z,27.70
2023-02-14T13:09:17.303Z,27.70
2023-02-14T13:10:36.051Z,27.70
2023-02-14T13:11:57.848Z,27.70
2023-02-14T13:13:07.499Z,27.60
2023-02-14T13:14:32.172Z,27.60
2023-02-14T13:15:46.472Z,27.60
2023-02-14T13:16:56.944Z,27.50
2023-02-14T13:18:13.138Z,27.50
2023-02-14T13:19:36.355Z,27.40
2023-02-14T13:20:53.326Z,27.30
2023-02-14T13:21:59.943Z,27.20
2023-02-14T13:23:07.740Z,27.20
2023-02-14T13:24:20.338Z,27.20
2023-02-14T13:25:31.897Z,27.10
2023-02-14T13:26:42.065Z,27.10
2023-02-14T13:27:47.311Z,27.10
2023-02-14T13:29:00.273Z,27.10
2023-02-14T13:30:13.160Z,27.10
2023-02-14T13:31:19.479Z,27.10
2023-02-14T13:32:29.887Z,27.10
2023-02-14T13:33:38.420Z,27.10
2023-02-14T13:34:46.641Z,27.20
2023-02-14T13:35:50.930Z,27.20
2023-02-14T13:36:56.890Z,27.10
2023-02-14T13:38:04.688Z,27.10
2023-02-14T13:39:11.112Z,27.10
2023-02-14T13:40:22.039Z,27.10
2023-02-14T13:41:29.462Z,27.00
2023-02-14T13:42:57.026Z,27.00
2023-02-14T13:44:02.724Z,26.90
2023-02-14T13:46:06.885Z,26.80
2023-02-14T13:47:22.205Z,26.70
2023-02-14T13:48:27.567Z,26.60
2023-02-14T13:50:48.997Z,26.50
2023-02-14T13:51:56.971Z,26.40
2023-02-14T13:52:59.752Z,26.30
2023-02-14T13:54:03.548Z,26.20
2023-02-14T13:55:17.311Z,26.10
2023-02-14T13:56:36.068Z,26.00
2023-02-14T13:57:41.391Z,25.90
2023-02-14T13:58:52.454Z,25.80
2023-02-14T14:00:39.227Z,25.70
2023-02-14T14:02:55.097Z,25.50
2023-02-14T14:04:01.265Z,25.40
2023-02-14T14:05:58.617Z,25.40
2023-02-14T14:07:32.478Z,25.20
2023-02-14T14:08:44.180Z,25.00
2023-02-14T14:10:05.102Z,24.90
2023-02-14T14:11:32.612Z,24.80
2023-02-14T14:12:45.342Z,24.70
2023-02-14T14:14:04.959Z,24.50
2023-02-14T14:15:21.168Z,24.40
2023-02-14T14:16:30.848Z,24.30
2023-02-14T14:17:36.735Z,24.20
2023-02-14T14:18:44.740Z,24.10
2023-02-14T14:19:48.857Z,23.90
2023-02-14T14:20:52.715Z,23.90
2023-02-14T14:22:03.788Z,23.80
2023-02-14T14:23:37.152Z,23.70
2023-02-14T14:24:42.559Z,23.70
2023-02-14T14:25:45.697Z,23.70
2023-02-14T14:26:53.117Z,23.70
2023-02-14T14:27:57.034Z,23.80
2023-02-14T14:29:00.222Z,23.80
2023-02-14T14:30:16.967Z,23.90
2023-02-14T14:31:21.072Z,23.90
2023-02-14T14:32:30.668Z,23.90
2023-02-14T14:33:42.243Z,23.90
2023-02-14T14:34:53.066Z,23.90
2023-02-14T14:35:58.804Z,23.90
2023-02-14T14:37:04.967Z,23.90
2023-02-14T14:38:14.538Z,23.90
2023-02-14T14:39:29.592Z,23.90
2023-02-14T14:40:39.490Z,23.90
2023-02-14T14:41:43.038Z,24.00
2023-02-14T14:42:48.635Z,24.00
2023-02-14T14:43:51.105Z,24.00
2023-02-14T14:44:58.421Z,24.00
2023-02-14T14:46:04.875Z,23.90
2023-02-14T14:47:13.482Z,23.90
2023-02-14T14:48:25.064Z,23.90
2023-02-14T14:49:33.102Z,23.90
2023-02-14T14:50:37.802Z,24.00
2023-02-14T14:51:45.748Z,23.90
2023-02-14T14:52:52.418Z,23.90
2023-02-14T14:53:58.746Z,23.90
2023-02-14T14:55:04.320Z,23.90
2023-02-14T14:56:08.497Z,23.80
2023-02-14T14:57:19.256Z,23.80
2023-02-14T14:58:37.202Z,23.80
2023-02-14T14:59:40.998Z,23.70
2023-02-14T15:00:53.131Z,23.70
2023-02-14T15:01:59.384Z,23.60
2023-02-14T15:03:08.072Z,23.50
2023-02-14T15:04:17.966Z,23.50
2023-02-14T15:05:27.814Z,23.50
2023-02-14T15:06:34.832Z,23.40
2023-02-14T15:07:38.256Z,23.40
2023-02-14T15:08:41.867Z,23.30
2023-02-14T15:09:46.111Z,23.20
2023-02-14T15:10:55.442Z,23.20
2023-02-14T15:12:19.296Z,23.10
2023-02-14T15:13:49.594Z,23.00